createdAt,value
2023-02-16T00:05:44.649Z,63.00
2023-02-16T00:15:50.612Z,66.27
2023-02-16T00:25:52.781Z,63.70
2023-02-16T00:35:55.964Z,55.07
2023-02-16T00:46:00.688Z,56.53
2023-02-16T00:56:04.744Z,63.30
2023-02-16T01:06:29.720Z,63.37
2023-02-16T01:16:42.826Z,60.33
2023-02-16T01:26:49.955Z,63.87
2023-02-16T01:36:53.203Z,56.80
2023-02-16T01:47:21.925Z,66.90
2023-02-16T01:57:39.243Z,59.87
2023-02-16T02:08:12.061Z,65.87
2023-02-16T02:18:17.206Z,58.53
2023-02-16T02:29:01.075Z,49.77
2023-02-16T02:39:10.403Z,66.70
2023-02-16T02:49:17.192Z,58.53
2023-02-16T02:59:40.180Z,67.17
2023-02-16T03:09:44.763Z,64.83
2023-02-16T03:20:10.952Z,65.13
2023-02-16T03:30:16.381Z,61.97
2023-02-16T03:40:31.966Z,68.40
2023-02-16T03:50:40.022Z,68.60
2023-02-16T04:00:45.093Z,67.43
2023-02-16T04:10:47.419Z,72.97
2023-02-16T04:20:52.533Z,67.10
2023-02-16T04:31:03.520Z,63.00
2023-02-16T04:41:09.548Z,70.50
2023-02-16T04:51:20.876Z,70.83
2023-02-16T05:01:24.729Z,67.03
2023-02-16T05:11:46.044Z,68.07
2023-02-16T05:21:53.160Z,61.00
2023-02-16T05:31:57.969Z,67.87
2023-02-16T05:42:02.048Z,68.13
2023-02-16T05:52:08.049Z,59.37
2023-02-16T06:02:14.105Z,66.47
2023-02-16T06:12:18.365Z,68.50
2023-02-16T06:22:22.095Z,66.13
2023-02-16T06:32:29.454Z,66.30
2023-02-16T06:42:37.319Z,67.87
2023-02-16T06:52:39.585Z,63.40
2023-02-16T07:02:43.600Z,71.73
2023-02-16T07:12:46.470Z,68.80
2023-02-16T07:22:50.907Z,60.20
2023-02-16T07:32:58.394Z,69.50
2023-02-16T07:43:07.970Z,60.70
2023-02-16T07:53:13.112Z,58.80
2023-02-16T08:03:20.167Z,57.13
2023-02-16T08:13:24.705Z,60.53
2023-02-16T08:23:26.930Z,56.33
2023-02-16T08:33:34.862Z,48.97
2023-02-16T08:43:37.039Z,50.03
2023-02-16T08:53:46.562Z,63.97
2023-02-16T09:03:50.416Z,57.80
2023-02-16T09:13:52.586Z,56.63
2023-02-16T09:23:56.603Z,52.10
2023-02-16T09:34:08.494Z,56.37
2023-02-16T09:44:33.966Z,60.87
2023-02-16T09:54:57.851Z,51.30
2023-02-16T10:05:31.208Z,58.43
2023-02-16T10:15:35.037Z,61.13
2023-02-16T10:25:57.776Z,61.80
2023-02-16T10:36:03.158Z,54.17
2023-02-16T10:46:08.662Z,51.37
2023-02-16T10:56:34.991Z,52.40
2023-02-16T11:06:40.142Z,53.13
2023-02-16T11:16:42.283Z,52.27
2023-02-16T11:26:44.723Z,51.90
2023-02-16T11:36:47.531Z,45.70
2023-02-16T11:46:50.377Z,49.33
2023-02-16T11:57:15.781Z,49.90
2023-02-16T12:07:52.066Z,42.60
2023-02-16T12:18:34.875Z,44.73
2023-02-16T12:29:01.612Z,46.77
2023-02-16T12:39:37.128Z,43.77
2023-02-16T12:49:56.342Z,40.30
2023-02-16T13:00:01.079Z,48.07
2023-02-16T13:10:17.641Z,46.13
2023-02-16T13:20:24.902Z,45.17
2023-02-16T13:30:48.760Z,42.97
2023-02-16T13:41:28.630Z,48.33
2023-02-16T13:51:42.305Z,44.23
2023-02-16T14:01:54.413Z,48.93
2023-02-16T14:11:57.698Z,50.77
2023-02-16T14:22:12.595Z,49.93
2023-02-16T14:32:26.847Z,51.10
2023-02-16T14:42:35.663Z,57.60
2023-02-16T14:52:51.207Z,50.80
2023-02-16T15:02:58.211Z,50.03
2023-02-16T15:13:00.324Z,52.57
2023-02-16T15:23:21.764Z,54.53
2023-02-16T15:33:39.676Z,47.30
2023-02-16T15:43:50.388Z,45.80
2023-02-16T15:54:00.939Z,49.47
2023-02-16T16:04:25.577Z,47.60
2023-02-16T16:14:28.630Z,50.83
2023-02-16T16:24:35.730Z,52.03
2023-02-16T16:34:39.987Z,48.40
2023-02-16T16:45:13.872Z,57.17
2023-02-16T16:55:44.244Z,50.10
2023-02-16T17:05:51.067Z,49.90
2023-02-16T17:16:07.493Z,50.30
2023-02-16T17:26:12.298Z,48.13
2023-02-16T17:36:16.019Z,48.77
2023-02-16T17:46:19.465Z,47.50
2023-02-16T17:56:23.141Z,46.70
2023-02-16T18:06:32.112Z,54.07
2023-02-16T18:16:36.687Z,52.33
2023-02-16T18:26:40.107Z,46.63
2023-02-16T18:36:46.564Z,51.03
2023-02-16T18:46:52.473Z,52.83
2023-02-16T18:56:55.134Z,50.07
2023-02-16T19:07:00.817Z,53.17
2023-02-16T19:17:06.121Z,50.60
2023-02-16T19:27:10.487Z,51.13
2023-02-16T19:37:15.368Z,51.97
2023-02-16T19:47:20.349Z,57.57
2023-02-16T19:57:25.950Z,57.03
2023-02-16T20:07:31.081Z,52.03
2023-02-16T20:17:33.590Z,54.90
2023-02-16T20:27:36.435Z,54.17
2023-02-16T20:37:40.361Z,54.90
2023-02-16T20:47:48.182Z,62.40
2023-02-16T20:57:52.521Z,64.20
2023-02-16T21:07:59.051Z,54.43
2023-02-16T21:18:01.222Z,54.80
2023-02-16T21:28:05.749Z,55.40
2023-02-16T21:38:13.756Z,60.30
2023-02-16T21:48:34.473Z,56.60
2023-02-16T21:58:36.655Z,58.87
2023-02-16T22:08:42.488Z,62.67
2023-02-16T22:18:47.830Z,64.93
2023-02-16T22:28:50.702Z,57.93
2023-02-16T22:38:53.905Z,62.57
2023-02-16T22:48:58.710Z,59.07
2023-02-16T22:59:03.496Z,61.80
2023-02-16T23:09:09.234Z,62.67
2023-02-16T23:19:18.180Z,64.73
2023-02-16T23:29:22.605Z,59.70
2023-02-16T23:39:28.746Z,61.33
2023-02-16T23:49:34.790Z,65.13
2023-02-16T23:59:37.122Z,65.47
